Flight Track Log - Related Links

Times and Time Zones

All times are in EDT time to prevent confusion due to time zone crossing. See the ASQ5745 flight status page for this flight to view local times or setup timezone preferences in your user account.

Time Position Orientation Groundspeed Altitude Reporting Facility
EDT Latitude Longitude Course Direction KTS km/h meters Rate Location/Type
Sat 08:28:57 38.9667 -77.4333 90° East 166 307 640  Level Potomac TRACON
Sat 08:29:57 39.0333 -77.4500 349° North 227 420 1,097 722 Climbing Potomac TRACON
Sat 08:30:51 39.0833 -77.4500 360° North 238 441 2,012 931 Climbing Potomac TRACON
Sat 08:31:00 38.9931 -77.1108 72° East  Level FlightAware Approximate
Sat 08:31:45 39.1500 -77.4000 30° Northeast 261 483 2,774  Level Potomac TRACON
Sat 08:32:00 39.0167 -76.9981 90° East  Level FlightAware Approximate
Sat 08:32:45 39.1667 -77.3000 78° East 344 637 3,078  Level Potomac TRACON
Sat 08:33:00 39.0332 -76.8840 72° East  Level FlightAware Approximate
Sat 08:33:39 39.1167 -77.1833 119° Southeast 398 737 3,475  Level Potomac TRACON
Sat 08:34:00 39.0500 -76.7699 90° East  Level FlightAware Approximate
Sat 08:34:39 39.0833 -77.0500 108° East 403 747 4,054  Level Potomac TRACON
Sat 08:36:44 39.0908 -76.7817 88° East 414 766 5,090 482 Climbing Washington Center
Sat 08:37:45 39.1047 -76.6428 83° East 402 745 5,547 457 Climbing Washington Center
Sat 08:38:44 39.1206 -76.4986 82° East 402 745 6,005 434 Climbing Washington Center
Sat 08:39:43 39.1339 -76.3517 83° East 407 753 6,401 338 Climbing Washington Center
Sat 08:40:43 39.1514 -76.1992 82° East 413 764 6,675 259 Climbing Washington Center
Sat 08:41:43 39.1750 -76.0467 79° East 418 774 6,919 257 Climbing Washington Center
Sat 08:42:44 39.1944 -75.8889 81° East 436 808 7,193 302 Climbing Washington Center
Sat 08:43:44 39.2675 -75.7819 49° Northeast 396 734 7,529 212 Climbing Washington Center
Sat 08:44:45 39.3447 -75.6800 46° Northeast 396 734 7,620 46 Climbing Washington Center
Sat 08:45:43 39.4239 -75.5836 43° Northeast 386 715 7,620  Level Washington Center
Sat 08:46:44 39.4969 -75.4867 46° Northeast 381 705 7,620  Level Washington Center
Sat 08:48:54 39.6542 -75.2819 45° Northeast 367 679 7,620  Level New York Center
Sat 08:49:55 39.7222 -75.1864 47° Northeast 367 679 7,620  Level New York Center
Sat 08:50:54 39.7953 -75.0775 49° Northeast 362 671 7,620  Level New York Center
Sat 08:51:53 39.8656 -74.9792 47° Northeast 362 671 7,620  Level New York Center
Sat 08:52:55 39.9356 -74.8806 47° Northeast 362 671 7,620  Level New York Center
Sat 08:53:53 40.0100 -74.7792 46° Northeast 362 671 7,620 -16 Level New York Center
Sat 08:54:53 40.0819 -74.6831 46° Northeast 362 671 7,590  Descending New York Center
Sat 08:55:53 40.1478 -74.5833 49° Northeast 362 671 7,620 15 Climbing New York Center
Sat 08:56:53 40.2178 -74.4839 47° Northeast 362 671 7,620  Level New York Center
Sat 08:57:55 40.2956 -74.3956 41° Northeast 362 671 7,620 -15 Level New York Center
Sat 08:58:55 40.3753 -74.3100 39° Northeast 362 671 7,590 -109 Descending New York Center
Sat 08:59:53 40.4569 -74.2242 39° Northeast 368 681 7,407 -155 Descending New York Center
Sat 09:00:53 40.5367 -74.1353 40° Northeast 368 681 7,285 -29 Descending New York Center
Sat 09:03:05 40.7189 -73.9461 38° Northeast 376 697 7,315 Climbing Boston Center
Sat 09:04:05 40.7992 -73.8575 40° Northeast 376 697 7,315  Level Boston Center
Sat 09:05:05 40.8733 -73.7603 45° Northeast 376 697 7,315 -15 Level Boston Center
Sat 09:06:05 40.9536 -73.6658 42° Northeast 376 697 7,285 -152 Descending Boston Center
Sat 09:07:05 41.0558 -73.6511 North 356 660 7,010 -168 Descending Boston Center
Sat 09:08:05 41.1581 -73.6394 North 356 660 6,949 -244 Descending Boston Center
Sat 09:09:05 41.2647 -73.6275 North 369 684 6,523 -411 Descending Boston Center
Sat 09:10:05 41.3628 -73.6156 North 369 684 6,126 -366 Descending Boston Center
Sat 09:11:05 41.4608 -73.6036 North 363 673 5,791 -168 Descending Boston Center
Sat 09:12:05 41.5461 -73.5967 North 347 642 5,791  Level Boston Center
Sat 09:13:05 41.6528 -73.5792 North 353 653 5,791 -152 Level Boston Center
Sat 09:14:05 41.7467 -73.5725 North 359 665 5,486 -488 Descending Boston Center
Sat 09:15:05 41.8550 -73.5578 North 365 676 4,816 -663 Descending Boston Center
Sat 09:15:36 41.9094 -73.5503 North 358 663 4,481 -579 Descending Boston Center
Sat 09:16:05 41.9428 -73.5481 North 360 666 4,237 -532 Descending Boston Center
Sat 09:16:31 41.9886 -73.5406 North 342 634 3,993 -549 Descending Boston Center
Sat 09:17:05 42.0469 -73.5333 North 343 636 3,688 -579 Descending Boston Center
Sat 09:17:31 42.0908 -73.5311 North 334 618 3,414 -335 Descending Boston Center
Sat 09:18:05 42.1344 -73.5431 349° North 327 605 3,353 -60 Descending Boston Center
Sat 09:18:32 42.1697 -73.5633 337° Northwest 290 538 3,353  Level Boston Center
Sat 09:19:05 42.2092 -73.5892 334° Northwest 301 557 3,353 -244 Level Boston Center
Sat 09:19:32 42.2403 -73.6067 337° Northwest 276 512 3,109 -549 Descending Boston Center
Sat 09:20:05 42.2794 -73.6328 334° Northwest 289 536 2,804 -600 Descending Boston Center
Sat 09:20:33 42.3106 -73.6531 334° Northwest 276 512 2,499 -610 Descending Boston Center
Sat 09:21:05 42.3375 -73.6675 338° Northwest 268 496 2,195 -660 Descending Boston Center
Sat 09:21:34 42.3747 -73.6878 338° Northwest 247 457 1,829 -637 Descending Boston Center
Sat 09:22:34 42.4286 -73.7228 334° Northwest 207 383 1,250 -302 Descending Boston Center
Sat 09:23:35 42.4719 -73.7489 336° Northwest 171 317 1,219 -181 Descending Boston Center
Sat 09:24:35 42.5156 -73.7753 336° Northwest 172 319 884 -212 Descending Boston Center
Sat 09:25:36 42.5611 -73.7986 339° North 158 293 792 -45 Descending Boston Center
Sat 09:26:37 42.6028 -73.8025 356° North 145 269 792  Level Boston Center

Login

Don't have an account? Register now (free) for customized features, flight alerts, and more!